Time;durP1;ratioP1;P1;durP2;ratioP2;P2;SDS_P1;SDS_P2;PMS_P1;PMS_P2;Temp;Humidity;BMP_temperature;BMP_pressure;BME280_temperature;BME280_humidity;BME280_pressure;Samples;Min_cycle;Max_cycle;Signal;HPM_P1;HPM_P2
2021/09/05 00:01:54;;;;;;;16.38;10.00;;;11.30;77.60;;;;;;5003782;28;20149;-72
2021/09/05 00:04:20;;;;;;;16.33;9.93;;;11.30;77.70;;;;;;5003800;28;20397;-71
2021/09/05 00:06:46;;;;;;;18.10;9.95;;;11.30;78.00;;;;;;5002618;28;20406;-71
2021/09/05 00:09:11;;;;;;;15.00;9.75;;;11.30;78.30;;;;;;5003867;28;20124;-72
2021/09/05 00:11:37;;;;;;;13.95;9.25;;;11.20;78.30;;;;;;5003297;28;20037;-72
2021/09/05 00:14:04;;;;;;;16.73;10.18;;;11.30;78.50;;;;;;4984919;28;20104;-72
2021/09/05 00:16:30;;;;;;;15.75;9.95;;;11.20;78.70;;;;;;5002259;28;20376;-71
2021/09/05 00:18:58;;;;;;;12.93;9.38;;;11.30;78.70;;;;;;5003224;28;20491;-71
2021/09/05 00:21:24;;;;;;;13.65;9.50;;;11.20;78.70;;;;;;5003771;28;20014;-72
2021/09/05 00:23:50;;;;;;;15.00;9.82;;;11.30;78.70;;;;;;5002047;28;20022;-72
2021/09/05 00:26:16;;;;;;;16.67;10.45;;;11.30;78.60;;;;;;5002219;28;20029;-72
2021/09/05 00:28:41;;;;;;;14.60;9.52;;;11.30;78.50;;;;;;5003505;28;20026;-72
2021/09/05 00:31:07;;;;;;;18.48;9.75;;;11.30;78.30;;;;;;5001879;28;20089;-72
2021/09/05 00:33:33;;;;;;;13.70;9.85;;;11.30;78.10;;;;;;5003265;28;20369;-71
2021/09/05 00:35:59;;;;;;;13.68;10.43;;;11.30;78.00;;;;;;5003113;28;20030;-72
2021/09/05 00:38:25;;;;;;;15.40;10.10;;;11.30;77.90;;;;;;5001518;28;20031;-72
2021/09/05 00:40:51;;;;;;;16.02;10.55;;;11.30;77.90;;;;;;5003337;28;20033;-71
2021/09/05 00:43:16;;;;;;;16.02;10.82;;;11.20;77.90;;;;;;5002613;28;20487;-72
2021/09/05 00:45:42;;;;;;;15.25;10.45;;;11.20;77.70;;;;;;5002033;28;20332;-72
2021/09/05 00:48:08;;;;;;;15.52;10.60;;;11.20;77.70;;;;;;5003519;28;20048;-72
2021/09/05 00:50:35;;;;;;;16.38;9.48;;;11.10;77.70;;;;;;5002101;28;20026;-71
2021/09/05 00:53:01;;;;;;;15.00;9.73;;;11.10;77.60;;;;;;5001873;28;20040;-72
2021/09/05 00:55:26;;;;;;;13.57;9.30;;;11.10;77.40;;;;;;5003816;28;20559;-72
2021/09/05 00:57:52;;;;;;;14.73;10.05;;;11.10;77.20;;;;;;5001829;28;20077;-71
2021/09/05 01:00:19;;;;;;;14.02;10.23;;;11.10;77.10;;;;;;5002225;28;20053;-73
2021/09/05 01:02:47;;;;;;;15.18;9.82;;;11.20;76.90;;;;;;5003689;28;20029;-72
2021/09/05 01:05:13;;;;;;;15.48;9.55;;;11.10;76.70;;;;;;4984378;28;20485;-71
2021/09/05 01:07:39;;;;;;;16.15;10.00;;;11.20;76.70;;;;;;5001959;28;20029;-71
2021/09/05 01:10:06;;;;;;;14.45;9.75;;;11.20;76.40;;;;;;5000661;28;20026;-71
2021/09/05 01:12:32;;;;;;;12.32;9.57;;;11.20;76.20;;;;;;5003286;28;20080;-70
2021/09/05 01:14:57;;;;;;;18.40;10.18;;;11.10;76.10;;;;;;4984984;28;20030;-72
2021/09/05 01:17:23;;;;;;;15.30;10.68;;;11.10;76.10;;;;;;5001448;28;20030;-71
2021/09/05 01:19:50;;;;;;;13.85;9.93;;;11.10;76.10;;;;;;5002931;28;20566;-71
2021/09/05 01:22:16;;;;;;;17.13;9.43;;;11.10;76.10;;;;;;4998382;28;20022;-73
2021/09/05 01:24:42;;;;;;;16.75;9.10;;;11.00;76.00;;;;;;4993471;28;20145;-72
2021/09/05 01:27:08;;;;;;;13.27;8.90;;;11.00;75.90;;;;;;4993637;28;20108;-71
2021/09/05 01:29:33;;;;;;;14.13;8.98;;;11.00;75.80;;;;;;4993378;28;20555;-71
2021/09/05 01:31:59;;;;;;;14.18;8.88;;;10.90;75.80;;;;;;4993683;28;20409;-70
2021/09/05 01:34:25;;;;;;;12.57;8.80;;;10.90;75.80;;;;;;4975930;28;20121;-72
2021/09/05 01:36:54;;;;;;;13.25;8.50;;;10.90;75.90;;;;;;4993559;28;20477;-72
2021/09/05 01:39:22;;;;;;;17.13;9.10;;;10.80;76.00;;;;;;5011015;28;20476;-72
2021/09/05 01:41:48;;;;;;;16.05;9.07;;;10.80;76.10;;;;;;5012723;28;20041;-72
2021/09/05 01:44:19;;;;;;;16.42;9.00;;;10.80;76.20;;;;;;5013023;28;20041;-71
2021/09/05 01:46:44;;;;;;;12.02;8.45;;;10.70;76.30;;;;;;5013067;28;20022;-72
2021/09/05 01:49:10;;;;;;;14.75;8.50;;;10.70;76.40;;;;;;5012640;28;20026;-72
2021/09/05 01:51:36;;;;;;;13.60;8.43;;;10.70;76.70;;;;;;5012808;28;20025;-71
2021/09/05 01:54:03;;;;;;;19.27;9.20;;;10.70;77.00;;;;;;5012473;28;20053;-72
2021/09/05 01:56:30;;;;;;;13.60;8.45;;;10.60;77.00;;;;;;5012634;28;20029;-72
2021/09/05 01:58:58;;;;;;;16.02;9.18;;;10.60;77.10;;;;;;5012662;28;20033;-72
2021/09/05 02:01:26;;;;;;;12.80;9.55;;;10.60;77.30;;;;;;4995124;28;20460;-72
2021/09/05 02:03:51;;;;;;;16.40;10.27;;;10.60;77.50;;;;;;5012409;28;20072;-71
2021/09/05 02:06:17;;;;;;;14.23;9.65;;;10.60;77.60;;;;;;5012452;28;20029;-71
2021/09/05 02:08:43;;;;;;;14.43;10.10;;;10.60;77.70;;;;;;5012509;28;20025;-71
2021/09/05 02:11:09;;;;;;;17.20;10.00;;;10.60;77.70;;;;;;5012396;28;20052;-71
2021/09/05 02:13:34;;;;;;;14.52;10.00;;;10.50;77.90;;;;;;5012413;28;20041;-71
2021/09/05 02:16:01;;;;;;;15.85;10.02;;;10.50;77.90;;;;;;5012579;28;20041;-71
2021/09/05 02:18:27;;;;;;;13.40;9.43;;;10.50;78.10;;;;;;4994881;28;20808;-71
2021/09/05 02:20:53;;;;;;;16.27;10.95;;;10.40;78.20;;;;;;5012170;28;20022;-71
2021/09/05 02:23:19;;;;;;;16.08;10.82;;;10.40;78.40;;;;;;5012188;28;20092;-72
2021/09/05 02:25:45;;;;;;;15.38;10.52;;;10.40;78.60;;;;;;5012193;28;20026;-71
2021/09/05 02:28:10;;;;;;;14.95;10.88;;;10.30;78.80;;;;;;5012281;28;20034;-71
2021/09/05 02:30:36;;;;;;;16.30;10.82;;;10.30;79.00;;;;;;5012211;28;20117;-71
2021/09/05 02:33:03;;;;;;;13.65;10.13;;;10.30;79.30;;;;;;5012212;28;20424;-71
2021/09/05 02:35:29;;;;;;;15.65;10.30;;;10.30;79.40;;;;;;5012174;28;20030;-73
2021/09/05 02:37:54;;;;;;;14.90;10.25;;;10.40;79.50;;;;;;4994614;28;20037;-72
2021/09/05 02:40:20;;;;;;;15.85;10.45;;;10.40;79.50;;;;;;5012159;28;20376;-72
2021/09/05 02:42:46;;;;;;;13.77;9.85;;;10.40;79.90;;;;;;4994458;28;20046;-72
2021/09/05 02:45:12;;;;;;;13.90;9.57;;;10.40;79.00;;;;;;5012136;28;20029;-72
2021/09/05 02:47:38;;;;;;;16.23;10.02;;;10.50;78.90;;;;;;5012034;28;20025;-72
2021/09/05 02:50:05;;;;;;;14.93;9.80;;;10.40;78.70;;;;;;5015817;28;20032;-72
2021/09/05 02:52:31;;;;;;;13.93;9.20;;;10.40;78.60;;;;;;5016049;28;20431;-71
2021/09/05 02:54:56;;;;;;;14.15;10.23;;;10.40;78.70;;;;;;5015715;28;20026;-71
2021/09/05 02:57:22;;;;;;;14.90;10.05;;;10.30;78.70;;;;;;5016213;28;20026;-72
2021/09/05 02:59:48;;;;;;;16.13;9.95;;;10.30;78.80;;;;;;5015726;28;20022;-71
2021/09/05 03:02:14;;;;;;;16.33;10.27;;;10.20;78.90;;;;;;5015912;28;20029;-72
2021/09/05 03:04:39;;;;;;;15.57;9.93;;;10.20;79.00;;;;;;5015907;28;20557;-72
2021/09/05 03:07:05;;;;;;;16.50;9.68;;;10.20;79.10;;;;;;5015799;28;20033;-73
2021/09/05 03:09:31;;;;;;;16.05;8.88;;;10.20;79.20;;;;;;5015336;28;20048;-73
2021/09/05 03:11:57;;;;;;;13.32;8.70;;;10.10;79.30;;;;;;5015415;28;20034;-73
2021/09/05 03:14:23;;;;;;;13.27;9.07;;;10.10;79.30;;;;;;5015502;28;20022;-72
2021/09/05 03:16:48;;;;;;;14.40;8.90;;;10.10;79.30;;;;;;5015623;28;20022;-73
2021/09/05 03:19:14;;;;;;;15.52;9.90;;;10.10;79.30;;;;;;5015486;28;20036;-73
2021/09/05 03:21:41;;;;;;;13.07;9.13;;;10.10;79.40;;;;;;5015586;28;20028;-72
2021/09/05 03:24:07;;;;;;;13.75;8.90;;;10.20;79.90;;;;;;4997894;28;20025;-71
2021/09/05 03:26:34;;;;;;;13.60;8.88;;;10.60;80.00;;;;;;5015554;28;20021;-71
2021/09/05 03:29:00;;;;;;;15.50;9.27;;;11.20;79.30;;;;;;5015226;28;20032;-71
2021/09/05 03:31:26;;;;;;;17.02;9.77;;;11.80;78.00;;;;;;5015415;28;20026;-73
2021/09/05 03:33:52;;;;;;;18.88;10.30;;;12.50;76.40;;;;;;5015195;28;20077;-71
2021/09/05 03:36:18;;;;;;;14.43;9.25;;;13.20;74.60;;;;;;5014994;28;20105;-72
2021/09/05 03:38:43;;;;;;;16.50;10.00;;;14.10;72.60;;;;;;5015290;28;20113;-72
2021/09/05 03:41:09;;;;;;;15.73;9.07;;;14.80;70.40;;;;;;5014936;28;20026;-71
2021/09/05 03:43:35;;;;;;;14.18;9.30;;;15.70;68.40;;;;;;5014968;28;20073;-72
2021/09/05 03:46:00;;;;;;;14.98;8.40;;;16.40;66.20;;;;;;5014799;28;20504;-73
2021/09/05 03:48:27;;;;;;;15.40;8.40;;;17.30;64.00;;;;;;5014710;28;20135;-72
2021/09/05 03:50:53;;;;;;;13.85;8.68;;;18.10;61.90;;;;;;5014978;28;20053;-72
2021/09/05 03:53:19;;;;;;;12.55;8.18;;;18.90;60.00;;;;;;5015105;28;20551;-72
2021/09/05 03:55:45;;;;;;;15.10;8.13;;;19.60;58.30;;;;;;4997404;28;20034;-72
2021/09/05 03:58:10;;;;;;;19.25;8.63;;;20.40;56.30;;;;;;4997195;28;20025;-73
2021/09/05 04:00:36;;;;;;;12.00;8.18;;;21.10;54.60;;;;;;5013190;28;20038;-73
2021/09/05 04:03:02;;;;;;;15.63;8.35;;;21.90;53.20;;;;;;5014367;28;20033;-72
2021/09/05 04:05:28;;;;;;;13.68;7.40;;;22.60;51.50;;;;;;5014564;28;20057;-72
2021/09/05 04:08:12;;;;;;;12.15;6.50;;;23.30;50.10;;;;;;5014605;28;20025;-71
2021/09/05 04:10:38;;;;;;;13.23;7.28;;;24.00;48.90;;;;;;5014607;28;20109;-72
2021/09/05 04:13:05;;;;;;;12.00;6.95;;;24.80;47.50;;;;;;5014500;28;20026;-73
2021/09/05 04:15:31;;;;;;;10.98;6.72;;;25.40;46.20;;;;;;5014262;28;20088;-72
2021/09/05 04:17:57;;;;;;;8.32;5.95;;;26.10;45.30;;;;;;5014380;28;20427;-73
2021/09/05 04:20:24;;;;;;;10.63;6.95;;;26.70;44.20;;;;;;5014195;28;20030;-73
2021/09/05 04:22:50;;;;;;;8.93;6.07;;;27.30;43.30;;;;;;5014162;28;20453;-72
2021/09/05 04:25:17;;;;;;;10.27;6.43;;;27.90;42.60;;;;;;5014251;28;20033;-72
2021/09/05 04:27:43;;;;;;;10.93;6.15;;;28.40;41.70;;;;;;5014061;28;20022;-72
2021/09/05 04:30:11;;;;;;;14.45;6.95;;;28.90;40.90;;;;;;5014093;28;20096;-72
2021/09/05 04:32:38;;;;;;;8.43;6.18;;;29.40;40.10;;;;;;5013809;28;20030;-72
2021/09/05 04:35:05;;;;;;;11.32;6.22;;;29.90;39.70;;;;;;5013952;28;20083;-71
2021/09/05 04:37:31;;;;;;;8.73;6.05;;;30.40;39.00;;;;;;5013829;28;20030;-72
2021/09/05 04:39:57;;;;;;;8.60;6.13;;;30.90;38.50;;;;;;5013770;28;20441;-72
2021/09/05 04:42:23;;;;;;;7.30;6.03;;;31.30;37.90;;;;;;5013490;28;20081;-72
2021/09/05 04:44:49;;;;;;;10.13;6.15;;;31.90;37.60;;;;;;5013411;28;20034;-73
2021/09/05 04:47:14;;;;;;;10.50;6.53;;;32.20;37.10;;;;;;5013695;28;20053;-73
2021/09/05 04:49:40;;;;;;;8.38;5.82;;;32.70;36.60;;;;;;5013407;28;20037;-72
2021/09/05 04:52:06;;;;;;;6.78;5.53;;;33.10;36.10;;;;;;5014052;28;20838;-72
2021/09/05 04:54:33;;;;;;;8.43;6.25;;;33.50;35.80;;;;;;5013504;28;20046;-73
2021/09/05 04:56:59;;;;;;;10.35;6.03;;;33.90;35.30;;;;;;5013554;28;20365;-73
2021/09/05 04:59:25;;;;;;;7.07;5.53;;;34.20;35.10;;;;;;5013131;28;20040;-72
2021/09/05 05:01:51;;;;;;;9.30;5.85;;;34.60;34.90;;;;;;5013234;28;20468;-74
2021/09/05 05:04:17;;;;;;;8.45;5.30;;;34.90;34.50;;;;;;5013126;28;20488;-72
2021/09/05 05:06:43;;;;;;;14.25;6.00;;;35.10;34.20;;;;;;5013235;28;20045;-74
2021/09/05 05:09:11;;;;;;;7.85;6.10;;;35.40;34.00;;;;;;5013168;28;20029;-74
2021/09/05 05:11:41;;;;;;;9.52;6.07;;;35.50;33.70;;;;;;5012828;28;20472;-73
2021/09/05 05:14:07;;;;;;;12.50;7.43;;;35.70;33.30;;;;;;5013070;28;20029;-73
2021/09/05 05:16:33;;;;;;;10.38;7.07;;;35.90;33.30;;;;;;5012883;28;20484;-73
2021/09/05 05:18:59;;;;;;;7.18;5.95;;;36.10;33.10;;;;;;5013128;28;20392;-75
2021/09/05 05:21:28;;;;;;;10.70;5.55;;;36.30;32.80;;;;;;5012872;28;20018;-74
2021/09/05 05:23:58;;;;;;;7.63;5.43;;;36.70;32.60;;;;;;4995249;28;20369;-72
2021/09/05 05:26:26;;;;;;;5.65;4.90;;;36.80;32.20;;;;;;5013162;28;20022;-73
2021/09/05 05:28:52;;;;;;;6.63;5.03;;;37.00;32.10;;;;;;5012978;28;20112;-73
2021/09/05 05:31:18;;;;;;;9.68;6.25;;;37.10;31.80;;;;;;5012885;28;20065;-74
2021/09/05 05:33:43;;;;;;;10.32;6.47;;;37.30;31.80;;;;;;5012332;28;20032;-73
2021/09/05 05:36:09;;;;;;;11.45;5.18;;;37.50;32.10;;;;;;5012688;28;20029;-73
2021/09/05 05:38:39;;;;;;;7.88;4.80;;;37.60;31.20;;;;;;5012849;28;20029;-73
2021/09/05 05:41:05;;;;;;;7.53;4.28;;;37.80;30.80;;;;;;5012735;28;20485;-73
2021/09/05 05:43:33;;;;;;;8.77;5.10;;;37.90;30.70;;;;;;5012615;28;20054;-72
2021/09/05 05:45:59;;;;;;;9.45;4.57;;;38.00;30.50;;;;;;5012498;28;20033;-72
2021/09/05 05:48:25;;;;;;;11.02;5.63;;;38.20;30.40;;;;;;5012586;28;20026;-73
2021/09/05 05:50:52;;;;;;;10.52;6.10;;;38.20;30.30;;;;;;5012578;28;20387;-73
2021/09/05 05:53:18;;;;;;;9.45;6.53;;;38.30;30.20;;;;;;4995013;28;20026;-73
2021/09/05 05:55:44;;;;;;;6.50;5.20;;;38.40;30.20;;;;;;5012462;28;20040;-73
2021/09/05 05:58:10;;;;;;;6.15;4.45;;;38.50;30.00;;;;;;5012214;28;20026;-72
2021/09/05 06:00:35;;;;;;;9.98;4.82;;;38.60;29.90;;;;;;5012115;28;20540;-72
2021/09/05 06:03:01;;;;;;;7.03;4.57;;;38.60;29.80;;;;;;5012212;28;20487;-72
2021/09/05 06:05:27;;;;;;;6.00;4.20;;;38.70;29.70;;;;;;5012547;28;20026;-74
2021/09/05 06:07:53;;;;;;;4.82;3.60;;;38.70;29.70;;;;;;5012612;28;20041;-74
2021/09/05 06:10:19;;;;;;;16.17;3.70;;;38.70;29.50;;;;;;5012120;28;20026;-73
2021/09/05 06:12:44;;;;;;;4.78;3.85;;;38.60;29.40;;;;;;5011969;28;20050;-73
2021/09/05 06:15:11;;;;;;;4.85;3.70;;;38.60;29.50;;;;;;4994448;28;20026;-73
2021/09/05 06:17:37;;;;;;;5.43;4.30;;;38.60;29.30;;;;;;5011971;28;20026;-73
2021/09/05 06:20:05;;;;;;;4.38;3.00;;;38.60;29.20;;;;;;5011893;28;20022;-73
2021/09/05 06:22:30;;;;;;;3.20;3.00;;;38.60;29.10;;;;;;5011463;28;20029;-73
2021/09/05 06:24:56;;;;;;;4.30;3.40;;;38.60;29.00;;;;;;5011801;28;20022;-74
2021/09/05 06:27:22;;;;;;;4.18;3.17;;;38.60;29.10;;;;;;5012022;28;20022;-74
2021/09/05 06:29:47;;;;;;;3.05;2.63;;;38.50;29.00;;;;;;5012122;28;20530;-72
2021/09/05 06:32:13;;;;;;;3.22;2.67;;;38.40;28.90;;;;;;5012089;28;20026;-73
2021/09/05 06:34:39;;;;;;;6.85;3.17;;;38.30;28.80;;;;;;5012317;28;20124;-73
2021/09/05 06:37:04;;;;;;;4.35;3.13;;;38.20;28.80;;;;;;5011619;28;20388;-73
2021/09/05 06:39:30;;;;;;;3.95;3.55;;;38.10;28.90;;;;;;5011785;28;20026;-73
2021/09/05 06:41:58;;;;;;;3.40;3.10;;;38.00;28.90;;;;;;5011864;28;20049;-73
2021/09/05 06:44:23;;;;;;;6.78;5.68;;;37.90;28.80;;;;;;5011941;28;20333;-72
2021/09/05 06:46:49;;;;;;;9.73;7.13;;;37.80;28.90;;;;;;5011592;28;20026;-72
2021/09/05 06:49:15;;;;;;;2.97;2.60;;;37.70;28.90;;;;;;4993635;28;20080;-72
2021/09/05 06:51:40;;;;;;;4.25;3.22;;;37.70;28.70;;;;;;5011420;28;20076;-73
2021/09/05 06:54:06;;;;;;;3.92;2.97;;;37.60;28.70;;;;;;5011479;28;20449;-73
2021/09/05 06:56:32;;;;;;;5.18;2.47;;;37.50;28.70;;;;;;5011664;28;20456;-72
2021/09/05 06:58:58;;;;;;;5.35;2.35;;;37.40;28.70;;;;;;5011715;28;20081;-73
2021/09/05 07:01:24;;;;;;;5.25;2.90;;;37.30;28.80;;;;;;5011851;28;20109;-74
2021/09/05 07:03:49;;;;;;;2.92;2.30;;;37.20;28.80;;;;;;5011777;28;20034;-74
2021/09/05 07:06:15;;;;;;;2.60;2.40;;;37.00;28.70;;;;;;5011553;28;20532;-75
2021/09/05 07:08:41;;;;;;;3.53;2.55;;;36.90;28.90;;;;;;5011497;28;20023;-75
2021/09/05 07:11:07;;;;;;;3.40;2.53;;;36.80;28.80;;;;;;5011426;28;20038;-73
2021/09/05 07:13:32;;;;;;;9.45;2.80;;;36.70;28.80;;;;;;4993792;28;20072;-72
2021/09/05 07:15:58;;;;;;;4.88;4.10;;;36.50;28.90;;;;;;5011305;28;20034;-75
2021/09/05 07:18:24;;;;;;;5.38;3.65;;;36.30;29.00;;;;;;5011450;28;20675;-74
2021/09/05 07:20:51;;;;;;;3.22;2.92;;;36.20;29.30;;;;;;5011222;28;20060;-74
2021/09/05 07:23:16;;;;;;;4.53;2.20;;;36.10;29.20;;;;;;5010970;28;20057;-73
2021/09/05 07:25:42;;;;;;;2.97;2.58;;;35.90;28.90;;;;;;5011394;28;20049;-74
2021/09/05 07:28:08;;;;;;;9.13;3.63;;;35.70;29.00;;;;;;4994256;28;20068;-74
2021/09/05 07:30:34;;;;;;;5.35;2.67;;;35.50;29.00;;;;;;5011226;28;20058;-74
2021/09/05 07:33:00;;;;;;;3.65;3.00;;;35.20;29.00;;;;;;4993791;28;20029;-75
2021/09/05 07:35:26;;;;;;;3.72;3.20;;;35.00;29.30;;;;;;5013722;28;20030;-75
2021/09/05 07:37:51;;;;;;;3.65;3.10;;;34.80;29.50;;;;;;5014866;28;20037;-74
2021/09/05 07:40:19;;;;;;;3.55;2.90;;;34.60;29.60;;;;;;5014398;28;20053;-74
2021/09/05 07:42:45;;;;;;;3.03;2.63;;;34.40;29.50;;;;;;5014439;28;20080;-73
2021/09/05 07:45:11;;;;;;;2.67;2.47;;;34.10;29.60;;;;;;5014599;28;20069;-73
2021/09/05 07:47:37;;;;;;;9.65;3.38;;;33.90;29.60;;;;;;5014166;28;20022;-73
2021/09/05 07:50:04;;;;;;;5.25;4.35;;;33.70;29.70;;;;;;5014054;28;20033;-73
2021/09/05 07:52:29;;;;;;;3.45;2.83;;;33.40;29.80;;;;;;5014508;28;20054;-74
2021/09/05 07:54:56;;;;;;;2.75;2.42;;;33.10;30.00;;;;;;5014043;28;20139;-74
2021/09/05 07:57:22;;;;;;;3.80;2.70;;;32.80;30.20;;;;;;5013575;28;20100;-74
2021/09/05 07:59:47;;;;;;;5.88;3.25;;;32.50;30.60;;;;;;5014251;28;20072;-74
2021/09/05 08:02:13;;;;;;;5.03;3.35;;;32.10;31.00;;;;;;5013963;28;20057;-75
2021/09/05 08:04:39;;;;;;;7.00;3.25;;;31.80;31.10;;;;;;4996774;28;20034;-76
2021/09/05 08:07:05;;;;;;;6.00;2.92;;;31.60;31.40;;;;;;5014628;28;20022;-74
2021/09/05 08:09:30;;;;;;;5.55;2.90;;;31.40;31.60;;;;;;5014499;28;20022;-76
2021/09/05 08:11:56;;;;;;;2.83;2.40;;;31.10;31.40;;;;;;5013962;28;20037;-75
2021/09/05 08:14:22;;;;;;;4.13;3.10;;;30.80;31.50;;;;;;5014185;28;20022;-74
2021/09/05 08:16:47;;;;;;;2.72;2.40;;;30.60;31.80;;;;;;5014041;28;20468;-74
2021/09/05 08:19:13;;;;;;;7.45;4.93;;;30.30;31.70;;;;;;5013776;28;20034;-74
2021/09/05 08:21:39;;;;;;;2.72;2.28;;;30.10;31.90;;;;;;5013869;28;20026;-75
2021/09/05 08:24:06;;;;;;;3.47;2.08;;;29.90;31.90;;;;;;5013999;28;20030;-75
2021/09/05 08:26:32;;;;;;;5.00;3.35;;;29.70;32.20;;;;;;5013796;28;20068;-75
2021/09/05 08:28:57;;;;;;;4.68;2.42;;;29.60;32.40;;;;;;5014040;28;20030;-74
2021/09/05 08:31:23;;;;;;;4.50;3.40;;;29.50;32.50;;;;;;5013839;28;20113;-75
2021/09/05 08:33:49;;;;;;;5.65;2.70;;;29.10;32.40;;;;;;5013703;28;20034;-75
2021/09/05 08:36:15;;;;;;;6.60;2.50;;;28.70;33.00;;;;;;5013442;28;20017;-74
2021/09/05 08:38:40;;;;;;;7.95;3.70;;;28.60;33.30;;;;;;5013537;28;20022;-74
2021/09/05 08:41:06;;;;;;;3.55;2.42;;;28.40;33.30;;;;;;5013274;28;20153;-75
2021/09/05 08:43:33;;;;;;;2.28;2.08;;;27.70;33.30;;;;;;5013411;28;20527;-74
2021/09/05 08:45:59;;;;;;;10.63;2.47;;;27.20;33.30;;;;;;5013141;28;20128;-75
2021/09/05 08:48:25;;;;;;;3.90;2.38;;;26.80;33.50;;;;;;5013524;28;20048;-75
2021/09/05 08:50:52;;;;;;;2.55;2.17;;;26.50;33.60;;;;;;5013419;28;20381;-74
2021/09/05 08:53:19;;;;;;;8.25;2.45;;;26.10;34.10;;;;;;5013355;28;20105;-75
2021/09/05 08:55:46;;;;;;;6.53;2.40;;;25.90;34.50;;;;;;5013634;28;20025;-72
2021/09/05 08:58:12;;;;;;;1.88;1.65;;;25.80;34.40;;;;;;5013039;28;20030;-73
2021/09/05 09:00:38;;;;;;;4.65;1.70;;;25.60;34.20;;;;;;5013026;28;20484;-74
2021/09/05 09:03:04;;;;;;;5.40;1.60;;;25.40;33.90;;;;;;5012959;28;20040;-74
2021/09/05 09:05:36;;;;;;;1.70;1.33;;;25.50;33.80;;;;;;5013375;28;20037;-74
2021/09/05 09:08:13;;;;;;;2.47;2.28;;;25.60;33.50;;;;;;4995713;28;20556;-72
2021/09/05 09:10:53;;;;;;;9.18;2.30;;;25.90;34.10;;;;;;5012916;28;20102;-74
2021/09/05 09:13:25;;;;;;;4.65;1.75;;;26.00;33.60;;;;;;5013044;28;20394;-73
2021/09/05 09:15:51;;;;;;;3.00;2.28;;;25.90;32.90;;;;;;5012715;28;20030;-74
2021/09/05 09:18:24;;;;;;;3.85;2.70;;;25.60;32.50;;;;;;5012916;28;20116;-75
2021/09/05 09:20:50;;;;;;;3.35;2.65;;;25.60;33.40;;;;;;5012532;28;20026;-74
2021/09/05 09:23:34;;;;;;;2.00;1.70;;;25.60;32.70;;;;;;5012439;28;20472;-75
2021/09/05 09:26:07;;;;;;;2.65;1.33;;;25.60;32.70;;;;;;5012536;28;20081;-74
2021/09/05 09:28:44;;;;;;;2.17;2.05;;;25.60;33.20;;;;;;5012588;28;20100;-72
2021/09/05 09:31:20;;;;;;;4.13;2.20;;;25.50;33.60;;;;;;5012424;28;20036;-73
2021/09/05 09:33:53;;;;;;;3.05;2.00;;;25.30;33.70;;;;;;5012408;28;20469;-74
2021/09/05 09:36:28;;;;;;;2.95;1.80;;;25.10;34.10;;;;;;5012626;28;20029;-75
2021/09/05 09:39:05;;;;;;;4.85;2.50;;;25.10;33.70;;;;;;5012510;28;20531;-71
2021/09/05 09:41:33;;;;;;;3.80;2.00;;;25.20;33.70;;;;;;5012157;28;20038;-74
2021/09/05 09:44:11;;;;;;;3.17;2.40;;;25.40;33.80;;;;;;5012559;28;20049;-76
2021/09/05 09:46:39;;;;;;;2.47;1.80;;;25.40;33.60;;;;;;5012259;28;20436;-76
2021/09/05 09:49:11;;;;;;;3.85;2.40;;;25.50;33.70;;;;;;5012527;28;20436;-77
2021/09/05 09:51:38;;;;;;;3.95;1.67;;;25.30;33.30;;;;;;5012007;28;20547;-74
2021/09/05 09:54:04;;;;;;;3.38;2.17;;;25.10;33.50;;;;;;5012025;28;20085;-73
2021/09/05 09:56:30;;;;;;;5.68;2.25;;;25.10;33.80;;;;;;5012222;28;20029;-74
2021/09/05 09:59:04;;;;;;;2.75;2.10;;;25.20;33.70;;;;;;5012066;28;20053;-74
2021/09/05 10:01:31;;;;;;;1.52;1.42;;;25.30;33.40;;;;;;5012105;28;20136;-75
2021/09/05 10:04:00;;;;;;;3.25;1.90;;;25.40;33.00;;;;;;5012514;28;20025;-75
2021/09/05 10:06:36;;;;;;;3.90;2.10;;;25.50;32.70;;;;;;5012123;28;20018;-76
2021/09/05 10:09:07;;;;;;;5.50;2.08;;;25.60;32.80;;;;;;5011988;28;20108;-74
2021/09/05 10:11:34;;;;;;;2.58;1.70;;;25.60;32.20;;;;;;5012150;28;20026;-76
2021/09/05 10:14:01;;;;;;;3.10;1.90;;;25.60;32.20;;;;;;5012012;28;20052;-75
2021/09/05 10:16:27;;;;;;;10.13;2.10;;;25.50;32.30;;;;;;5011846;28;20105;-74
2021/09/05 10:18:56;;;;;;;4.63;1.90;;;25.50;32.70;;;;;;4994187;28;20455;-74
2021/09/05 10:21:22;;;;;;;3.90;2.88;;;25.60;33.00;;;;;;4994121;28;20117;-74
2021/09/05 10:23:53;;;;;;;1.60;1.40;;;25.60;32.20;;;;;;5011709;28;20058;-74
2021/09/05 10:26:19;;;;;;;4.75;4.25;;;25.60;32.00;;;;;;5011691;28;20022;-73
2021/09/05 10:28:53;;;;;;;4.60;2.40;;;25.70;32.30;;;;;;5011480;28;20037;-73
2021/09/05 10:31:30;;;;;;;3.30;2.00;;;25.70;32.50;;;;;;5011577;28;20022;-75
2021/09/05 10:33:57;;;;;;;2.88;1.90;;;25.80;31.90;;;;;;5011483;28;20053;-73
2021/09/05 10:36:27;;;;;;;4.35;2.03;;;25.80;31.60;;;;;;5011455;28;20030;-70
2021/09/05 10:39:08;;;;;;;3.35;1.67;;;25.80;31.80;;;;;;5011724;28;20076;-71
2021/09/05 10:41:50;;;;;;;2.55;1.58;;;25.70;31.80;;;;;;5011476;28;20072;-71
2021/09/05 10:44:17;;;;;;;2.67;1.80;;;25.70;32.10;;;;;;5011285;28;20485;-72
2021/09/05 10:46:50;;;;;;;1.85;1.60;;;25.70;32.00;;;;;;5011535;28;20053;-71
2021/09/05 10:49:17;;;;;;;2.42;2.20;;;25.60;31.70;;;;;;5010916;28;20106;-71
2021/09/05 10:51:51;;;;;;;4.05;2.20;;;25.50;32.10;;;;;;5011068;28;20026;-71
2021/09/05 10:54:27;;;;;;;5.18;1.80;;;25.40;32.30;;;;;;5011281;28;20026;-71
2021/09/05 10:56:56;;;;;;;2.83;1.50;;;25.40;32.00;;;;;;5011288;28;20026;-71
2021/09/05 10:59:23;;;;;;;3.55;1.60;;;25.30;31.80;;;;;;5010911;28;20091;-72
2021/09/05 11:01:49;;;;;;;2.92;1.70;;;25.20;31.60;;;;;;5011279;28;20452;-71
2021/09/05 11:04:15;;;;;;;6.05;2.13;;;25.00;31.60;;;;;;5010955;28;20052;-71
2021/09/05 11:07:03;;;;;;;4.53;1.77;;;24.60;32.10;;;;;;5011319;28;20101;-72
2021/09/05 11:09:28;;;;;;;1.67;1.58;;;24.30;32.50;;;;;;5012422;28;20429;-71
2021/09/05 11:12:11;;;;;;;4.78;2.80;;;24.30;32.50;;;;;;5015033;28;20087;-72
2021/09/05 11:14:37;;;;;;;3.55;2.13;;;24.20;32.60;;;;;;5015059;28;20030;-71
2021/09/05 11:17:08;;;;;;;2.85;2.00;;;24.20;33.00;;;;;;5014811;28;20026;-72
2021/09/05 11:19:43;;;;;;;3.30;1.58;;;24.20;32.80;;;;;;5015120;28;20385;-72
2021/09/05 11:22:15;;;;;;;5.25;3.50;;;24.20;32.60;;;;;;5014902;28;20053;-72
2021/09/05 11:24:41;;;;;;;5.55;2.20;;;24.10;32.40;;;;;;5015071;28;20464;-70
2021/09/05 11:27:14;;;;;;;3.65;1.85;;;24.00;32.60;;;;;;5014825;28;20037;-69
2021/09/05 11:29:41;;;;;;;3.42;2.50;;;23.70;33.30;;;;;;5014719;28;20022;-72
2021/09/05 11:32:09;;;;;;;4.13;2.15;;;23.40;33.90;;;;;;5014766;28;20516;-71
2021/09/05 11:34:36;;;;;;;5.68;2.45;;;23.20;34.00;;;;;;5014617;28;20353;-71
2021/09/05 11:37:03;;;;;;;8.13;2.92;;;23.00;34.40;;;;;;5014706;28;20075;-70
2021/09/05 11:39:30;;;;;;;1.98;1.88;;;23.00;34.30;;;;;;5014421;28;20843;-69
2021/09/05 11:41:59;;;;;;;4.72;3.30;;;23.00;34.00;;;;;;5014517;28;20084;-74
2021/09/05 11:44:33;;;;;;;5.45;2.25;;;23.00;34.10;;;;;;5014726;28;20026;-70
2021/09/05 11:47:09;;;;;;;2.13;1.77;;;23.00;33.60;;;;;;5014332;28;20032;-71
2021/09/05 11:49:45;;;;;;;2.47;1.55;;;23.00;33.00;;;;;;5014234;28;20029;-70
2021/09/05 11:52:11;;;;;;;5.05;2.83;;;23.00;32.90;;;;;;5014306;28;20325;-72
2021/09/05 11:54:37;;;;;;;2.92;2.20;;;22.90;33.50;;;;;;5014267;28;20041;-72
2021/09/05 11:57:03;;;;;;;3.83;2.28;;;22.80;33.70;;;;;;5014144;28;20076;-70
2021/09/05 11:59:28;;;;;;;1.77;1.67;;;22.80;34.20;;;;;;5014231;28;20034;-70
2021/09/05 12:01:54;;;;;;;3.70;2.00;;;22.70;34.10;;;;;;5014145;28;20125;-71
2021/09/05 12:04:21;;;;;;;4.70;2.22;;;22.70;34.20;;;;;;5014225;28;20026;-71
2021/09/05 12:06:48;;;;;;;4.32;2.03;;;22.70;34.10;;;;;;5014077;28;20038;-71
2021/09/05 12:09:29;;;;;;;6.75;2.50;;;22.60;34.40;;;;;;5013872;28;20026;-70
2021/09/05 12:11:59;;;;;;;4.70;3.03;;;22.60;35.30;;;;;;5014351;28;20030;-71
2021/09/05 12:14:33;;;;;;;9.23;3.03;;;22.70;35.60;;;;;;5013680;28;20037;-71
2021/09/05 12:16:59;;;;;;;4.10;2.40;;;22.60;35.70;;;;;;5013882;28;20027;-70
2021/09/05 12:19:25;;;;;;;4.93;2.30;;;22.50;35.80;;;;;;5013710;28;20067;-71
2021/09/05 12:21:58;;;;;;;5.82;2.10;;;22.30;35.50;;;;;;5012657;28;20793;-71
2021/09/05 12:24:26;;;;;;;3.50;2.05;;;22.10;35.30;;;;;;5013506;28;20116;-71
2021/09/05 12:26:52;;;;;;;2.92;1.90;;;21.90;35.30;;;;;;5013435;28;20022;-70
2021/09/05 12:29:30;;;;;;;2.25;2.05;;;21.80;35.70;;;;;;5013702;28;20113;-72
2021/09/05 12:32:01;;;;;;;5.18;2.30;;;21.60;36.40;;;;;;5013519;28;20026;-70
2021/09/05 12:34:42;;;;;;;2.90;2.22;;;21.40;36.60;;;;;;5013851;28;20030;-72
2021/09/05 12:37:13;;;;;;;3.83;2.63;;;21.40;36.90;;;;;;5013408;28;20068;-70
2021/09/05 12:39:40;;;;;;;4.37;2.20;;;21.40;36.20;;;;;;5013625;28;20033;-72
2021/09/05 12:42:07;;;;;;;4.10;2.00;;;21.30;36.20;;;;;;5013519;28;20465;-74